createdAt,value
2023-03-16T00:00:25.120Z,3.28
2023-03-16T00:01:25.123Z,3.28
2023-03-16T00:02:25.119Z,3.28
2023-03-16T00:03:25.115Z,3.31
2023-03-16T00:04:25.074Z,3.30
2023-03-16T00:05:25.070Z,3.31
2023-03-16T00:06:25.823Z,3.34
2023-03-16T00:07:25.009Z,3.35
2023-03-16T00:08:25.011Z,3.34
2023-03-16T00:09:24.989Z,3.33
2023-03-16T00:10:25.269Z,3.34
2023-03-16T00:11:25.048Z,3.35
2023-03-16T00:12:24.980Z,3.37
2023-03-16T00:13:24.965Z,3.34
2023-03-16T00:14:24.936Z,3.34
2023-03-16T00:15:24.978Z,3.33
2023-03-16T00:16:24.922Z,3.33
2023-03-16T00:17:24.917Z,3.33
2023-03-16T00:18:24.894Z,3.30
2023-03-16T00:19:24.880Z,3.26
2023-03-16T00:20:25.025Z,3.28
2023-03-16T00:21:24.905Z,3.26
2023-03-16T00:22:24.819Z,3.25
2023-03-16T00:23:24.845Z,3.25
2023-03-16T00:24:24.815Z,3.23
2023-03-16T00:25:24.795Z,3.26
2023-03-16T00:26:24.813Z,3.25
2023-03-16T00:27:24.788Z,3.26
2023-03-16T00:28:24.778Z,3.30
2023-03-16T00:29:24.772Z,3.31
2023-03-16T00:30:24.745Z,3.33
2023-03-16T00:31:24.820Z,3.30
2023-03-16T00:32:24.752Z,3.31
2023-03-16T00:33:24.708Z,3.30
2023-03-16T00:34:24.686Z,3.30
2023-03-16T00:35:24.651Z,3.30
2023-03-16T00:36:24.620Z,3.30
2023-03-16T00:37:24.693Z,3.33
2023-03-16T00:38:24.639Z,3.33
2023-03-16T00:39:24.595Z,3.33
2023-03-16T00:40:24.570Z,3.34
2023-03-16T00:41:24.575Z,3.34
2023-03-16T00:42:24.587Z,3.37
2023-03-16T00:43:24.567Z,3.34
2023-03-16T00:44:24.571Z,3.37
2023-03-16T00:45:24.514Z,3.41
2023-03-16T00:46:24.530Z,3.39
2023-03-16T00:47:24.550Z,3.42
2023-03-16T00:48:24.499Z,3.44
2023-03-16T00:49:24.491Z,3.42
2023-03-16T00:50:24.477Z,3.44
2023-03-16T00:51:24.473Z,3.44
2023-03-16T00:52:24.459Z,3.42
2023-03-16T00:53:24.450Z,3.42
2023-03-16T00:54:24.419Z,3.42
2023-03-16T00:55:24.434Z,3.42
2023-03-16T00:56:24.360Z,3.45
2023-03-16T00:57:24.419Z,3.44
2023-03-16T00:58:24.359Z,3.44
2023-03-16T00:59:24.364Z,3.44
2023-03-16T01:00:24.346Z,3.44
2023-03-16T01:01:24.507Z,3.45
2023-03-16T01:02:24.373Z,3.45
2023-03-16T01:03:24.358Z,3.44
2023-03-16T01:04:24.300Z,3.44
2023-03-16T01:05:24.313Z,3.44
2023-03-16T01:06:24.284Z,3.42
2023-03-16T01:07:24.377Z,3.44
2023-03-16T01:08:24.209Z,3.42
2023-03-16T01:09:24.222Z,3.42
2023-03-16T01:10:24.223Z,3.41
2023-03-16T01:11:24.227Z,3.42
2023-03-16T01:12:24.182Z,3.39
2023-03-16T01:13:24.212Z,3.42
2023-03-16T01:14:24.138Z,3.41
2023-03-16T01:15:24.153Z,3.41
2023-03-16T01:16:24.163Z,3.41
2023-03-16T01:17:24.148Z,3.41
2023-03-16T01:18:24.164Z,3.41
2023-03-16T01:19:24.120Z,3.39
2023-03-16T01:20:24.114Z,3.39
2023-03-16T01:21:24.046Z,3.39
2023-03-16T01:22:24.065Z,3.39
2023-03-16T01:23:24.068Z,3.41
2023-03-16T01:24:24.020Z,3.39
2023-03-16T01:25:24.050Z,3.41
2023-03-16T01:26:24.012Z,3.44
2023-03-16T01:27:23.996Z,3.42
2023-03-16T01:28:23.972Z,3.41
2023-03-16T01:29:23.972Z,3.42
2023-03-16T01:30:23.928Z,3.45
2023-03-16T01:31:24.036Z,3.45
2023-03-16T01:32:23.976Z,3.45
2023-03-16T01:33:23.931Z,3.49
2023-03-16T01:34:23.898Z,3.50
2023-03-16T01:35:23.921Z,3.52
2023-03-16T01:36:23.892Z,3.50
2023-03-16T01:37:23.887Z,3.49
2023-03-16T01:38:23.877Z,3.49
2023-03-16T01:39:23.849Z,3.49
2023-03-16T01:40:23.852Z,3.50
2023-03-16T01:41:23.830Z,3.50
2023-03-16T01:42:23.811Z,3.52
2023-03-16T01:43:23.812Z,3.52
2023-03-16T01:44:23.742Z,3.50
2023-03-16T01:45:23.771Z,3.53
2023-03-16T01:46:24.005Z,3.53
2023-03-16T01:47:23.783Z,3.52
2023-03-16T01:48:24.974Z,3.53
2023-03-16T01:49:23.745Z,3.53
2023-03-16T01:50:23.681Z,3.54
2023-03-16T01:51:23.688Z,3.52
2023-03-16T01:52:23.708Z,3.52
2023-03-16T01:53:23.656Z,3.49
2023-03-16T01:54:23.661Z,3.46
2023-03-16T01:55:23.612Z,3.45
2023-03-16T01:56:23.610Z,3.46
2023-03-16T01:57:23.636Z,3.45
2023-03-16T01:58:23.593Z,3.45
2023-03-16T01:59:23.591Z,3.44
2023-03-16T02:00:23.627Z,3.44
2023-03-16T02:01:23.647Z,3.49
2023-03-16T02:02:23.543Z,3.46
2023-03-16T02:03:23.536Z,3.46
2023-03-16T02:04:23.550Z,3.46
2023-03-16T02:05:23.529Z,3.45
2023-03-16T02:06:23.465Z,3.46
2023-03-16T02:07:23.490Z,3.46
2023-03-16T02:08:23.447Z,3.46
2023-03-16T02:09:23.466Z,3.45
2023-03-16T02:10:23.439Z,3.45
2023-03-16T02:11:23.449Z,3.45
2023-03-16T02:12:23.483Z,3.44
2023-03-16T02:13:23.417Z,3.45
2023-03-16T02:14:23.394Z,3.45
2023-03-16T02:15:23.384Z,3.45
2023-03-16T02:16:23.492Z,3.45
2023-03-16T02:17:23.393Z,3.44
2023-03-16T02:18:23.327Z,3.42
2023-03-16T02:19:23.336Z,3.42
2023-03-16T02:20:23.295Z,3.41
2023-03-16T02:21:23.328Z,3.41
2023-03-16T02:22:23.294Z,3.41
2023-03-16T02:23:23.339Z,3.41
2023-03-16T02:24:23.281Z,3.41
2023-03-16T02:25:23.231Z,3.39
2023-03-16T02:26:23.202Z,3.42
2023-03-16T02:27:23.228Z,3.44
2023-03-16T02:28:23.248Z,3.45
2023-03-16T02:29:23.226Z,3.42
2023-03-16T02:30:23.163Z,3.42
2023-03-16T02:31:23.175Z,3.42
2023-03-16T02:32:23.167Z,3.41
2023-03-16T02:33:23.188Z,3.42
2023-03-16T02:34:23.127Z,3.41
2023-03-16T02:35:23.152Z,3.41
2023-03-16T02:36:23.080Z,3.39
2023-03-16T02:37:23.087Z,3.37
2023-03-16T02:38:23.138Z,3.39
2023-03-16T02:39:23.090Z,3.39
2023-03-16T02:40:23.060Z,3.37
2023-03-16T02:41:23.056Z,3.37
2023-03-16T02:42:23.015Z,3.39
2023-03-16T02:43:23.012Z,3.37
2023-03-16T02:44:22.979Z,3.37
2023-03-16T02:45:22.998Z,3.35
2023-03-16T02:46:23.058Z,3.34
2023-03-16T02:47:22.981Z,3.34
2023-03-16T02:48:22.962Z,3.33
2023-03-16T02:49:22.918Z,3.34
2023-03-16T02:50:22.906Z,3.33
2023-03-16T02:51:22.912Z,3.33
2023-03-16T02:52:22.879Z,3.34
2023-03-16T02:53:22.935Z,3.34
2023-03-16T02:54:22.881Z,3.31
2023-03-16T02:55:22.878Z,3.33
2023-03-16T02:56:22.850Z,3.33
2023-03-16T02:57:22.818Z,3.33
2023-03-16T02:58:22.821Z,3.33
2023-03-16T02:59:22.830Z,3.35
2023-03-16T03:00:22.844Z,3.35
2023-03-16T03:01:22.806Z,3.37
2023-03-16T03:02:22.777Z,3.37
2023-03-16T03:03:22.846Z,3.37
2023-03-16T03:04:22.750Z,3.37
2023-03-16T03:05:22.716Z,3.39
2023-03-16T03:06:22.692Z,3.39
2023-03-16T03:07:22.719Z,3.41
2023-03-16T03:08:22.692Z,3.39
2023-03-16T03:09:22.671Z,3.41
2023-03-16T03:10:22.655Z,3.42
2023-03-16T03:11:22.663Z,3.42
2023-03-16T03:12:22.639Z,3.44
2023-03-16T03:13:22.711Z,3.44
2023-03-16T03:14:22.614Z,3.42
2023-03-16T03:15:22.609Z,3.44
2023-03-16T03:16:22.664Z,3.45
2023-03-16T03:17:22.571Z,3.44
2023-03-16T03:18:22.595Z,3.45
2023-03-16T03:19:22.549Z,3.44
2023-03-16T03:20:22.520Z,3.45
2023-03-16T03:21:22.513Z,3.45
2023-03-16T03:22:22.499Z,3.46
2023-03-16T03:23:22.509Z,3.44
2023-03-16T03:24:22.489Z,3.45
2023-03-16T03:25:22.461Z,3.44
2023-03-16T03:26:22.472Z,3.45
2023-03-16T03:27:22.553Z,3.45
2023-03-16T03:28:22.438Z,3.45
2023-03-16T03:29:22.410Z,3.46
2023-03-16T03:30:22.379Z,3.49
2023-03-16T03:31:22.455Z,3.49
2023-03-16T03:32:22.418Z,3.50
2023-03-16T03:33:22.438Z,3.52
2023-03-16T03:34:22.332Z,3.50
2023-03-16T03:35:22.328Z,3.49
2023-03-16T03:36:22.316Z,3.46
2023-03-16T03:37:22.308Z,3.46
2023-03-16T03:38:22.325Z,3.46
2023-03-16T03:39:22.308Z,3.49
2023-03-16T03:40:22.285Z,3.46
2023-03-16T03:41:22.498Z,3.46
2023-03-16T03:42:22.222Z,3.46
2023-03-16T03:43:22.320Z,3.46
2023-03-16T03:44:22.205Z,3.46
2023-03-16T03:45:22.209Z,3.46
2023-03-16T03:46:22.319Z,3.49
2023-03-16T03:47:22.233Z,3.49
2023-03-16T03:48:22.166Z,3.45
2023-03-16T03:49:22.156Z,3.45
2023-03-16T03:50:22.162Z,3.45
2023-03-16T03:51:22.151Z,3.49
2023-03-16T03:52:22.123Z,3.46
2023-03-16T03:53:22.128Z,3.45
2023-03-16T03:54:22.154Z,3.44
2023-03-16T03:55:22.103Z,3.49
2023-03-16T03:56:22.060Z,3.45
2023-03-16T03:57:22.094Z,3.44
2023-03-16T03:58:22.044Z,3.45
2023-03-16T03:59:22.038Z,3.42
2023-03-16T04:00:22.062Z,3.42
2023-03-16T04:01:22.027Z,3.39
2023-03-16T04:02:22.080Z,3.42
2023-03-16T04:03:22.086Z,3.39
2023-03-16T04:04:22.000Z,3.35
2023-03-16T04:05:21.981Z,3.39
2023-03-16T04:06:21.951Z,3.35
2023-03-16T04:07:21.923Z,3.35
2023-03-16T04:08:21.917Z,3.35
2023-03-16T04:09:21.994Z,3.35
2023-03-16T04:10:21.871Z,3.34
2023-03-16T04:11:21.868Z,3.34
2023-03-16T04:12:21.855Z,3.33
2023-03-16T04:13:21.885Z,3.33
2023-03-16T04:14:21.856Z,3.30
2023-03-16T04:15:21.827Z,3.31
2023-03-16T04:16:21.868Z,3.30
2023-03-16T04:17:21.785Z,3.30
2023-03-16T04:18:21.773Z,3.28
2023-03-16T04:19:21.837Z,3.28
2023-03-16T04:20:21.758Z,3.28
2023-03-16T04:21:21.727Z,3.30
2023-03-16T04:22:21.725Z,3.30
2023-03-16T04:23:21.728Z,3.31
2023-03-16T04:24:21.730Z,3.30
2023-03-16T04:25:21.676Z,3.31
2023-03-16T04:26:21.694Z,3.31
2023-03-16T04:27:21.654Z,3.31
2023-03-16T04:28:21.656Z,3.33
2023-03-16T04:29:21.683Z,3.33
2023-03-16T04:30:21.614Z,3.33
2023-03-16T04:31:21.629Z,3.34
2023-03-16T04:32:21.620Z,3.35
2023-03-16T04:33:21.594Z,3.34
2023-03-16T04:34:21.648Z,3.35
2023-03-16T04:35:21.656Z,3.35
2023-03-16T04:36:21.561Z,3.34
2023-03-16T04:37:21.523Z,3.34
2023-03-16T04:38:21.545Z,3.35
2023-03-16T04:39:21.532Z,3.35
2023-03-16T04:40:21.532Z,3.34
2023-03-16T04:41:21.477Z,3.35
2023-03-16T04:42:21.504Z,3.35
2023-03-16T04:43:21.455Z,3.35
2023-03-16T04:44:21.434Z,3.37
2023-03-16T04:45:21.468Z,3.41
2023-03-16T04:46:21.536Z,3.44
2023-03-16T04:47:21.418Z,3.44
2023-03-16T04:48:21.391Z,3.45
2023-03-16T04:49:21.379Z,3.44
2023-03-16T04:50:21.418Z,3.44
2023-03-16T04:51:21.417Z,3.45
2023-03-16T04:52:21.333Z,3.45
2023-03-16T04:53:21.338Z,3.49
2023-03-16T04:54:21.338Z,3.49
2023-03-16T04:55:21.337Z,3.50
2023-03-16T04:56:21.291Z,3.49
2023-03-16T04:57:21.275Z,3.50
2023-03-16T04:58:21.289Z,3.50
2023-03-16T04:59:21.308Z,3.49
2023-03-16T05:00:21.553Z,3.50
2023-03-16T05:01:21.261Z,3.50
2023-03-16T05:02:21.254Z,3.50
2023-03-16T05:03:21.208Z,3.52
2023-03-16T05:04:21.230Z,3.53
2023-03-16T05:05:21.214Z,3.53
2023-03-16T05:06:21.208Z,3.54
2023-03-16T05:07:21.143Z,3.54
2023-03-16T05:08:28.215Z,3.56
2023-03-16T05:09:21.133Z,3.56
2023-03-16T05:10:21.175Z,3.57
2023-03-16T05:11:21.077Z,3.57
2023-03-16T05:12:21.079Z,3.56
2023-03-16T05:13:21.145Z,3.53
2023-03-16T05:14:21.080Z,3.52
2023-03-16T05:15:21.134Z,3.52
2023-03-16T05:16:21.127Z,3.53
2023-03-16T05:17:21.033Z,3.53
2023-03-16T05:18:21.041Z,3.52
2023-03-16T05:19:20.984Z,3.53
2023-03-16T05:20:21.035Z,3.52
2023-03-16T05:21:20.985Z,3.52
2023-03-16T05:22:20.952Z,3.52
2023-03-16T05:23:20.957Z,3.54
2023-03-16T05:24:20.949Z,3.52
2023-03-16T05:25:20.939Z,3.53
2023-03-16T05:26:20.932Z,3.54
2023-03-16T05:27:20.903Z,3.54
2023-03-16T05:28:20.871Z,3.54
2023-03-16T05:29:20.902Z,3.56
2023-03-16T05:30:20.852Z,3.56
2023-03-16T05:31:20.855Z,3.57
2023-03-16T05:32:35.079Z,3.59
2023-03-16T05:33:21.268Z,3.59
2023-03-16T05:34:27.354Z,3.59
2023-03-16T05:35:22.981Z,3.60
2023-03-16T05:36:20.816Z,3.60
2023-03-16T05:37:20.756Z,3.62
2023-03-16T05:38:20.777Z,3.60
2023-03-16T05:39:20.727Z,3.62
2023-03-16T05:40:20.750Z,3.62
2023-03-16T05:41:20.763Z,3.62
2023-03-16T05:42:20.727Z,3.62
2023-03-16T05:43:20.670Z,3.62
2023-03-16T05:44:20.713Z,3.63
2023-03-16T05:45:20.649Z,3.62
2023-03-16T05:46:21.032Z,3.62
2023-03-16T05:47:20.656Z,3.64
2023-03-16T05:48:20.646Z,3.63
2023-03-16T05:49:20.652Z,3.64
2023-03-16T05:50:20.619Z,3.63
2023-03-16T05:51:20.598Z,3.67
2023-03-16T05:52:20.595Z,3.68
2023-03-16T05:53:20.585Z,3.68
2023-03-16T05:54:20.539Z,3.68
2023-03-16T05:55:20.556Z,3.68
2023-03-16T05:56:20.556Z,3.67
2023-03-16T05:57:20.504Z,3.70
2023-03-16T05:58:20.497Z,3.68
2023-03-16T05:59:20.503Z,3.68
2023-03-16T06:00:20.506Z,3.68
2023-03-16T06:01:20.477Z,3.70
2023-03-16T06:02:20.473Z,3.70
2023-03-16T06:03:20.420Z,3.72
2023-03-16T06:04:20.473Z,3.71
2023-03-16T06:05:20.393Z,3.74
2023-03-16T06:06:20.445Z,3.72
2023-03-16T06:07:20.384Z,3.72
2023-03-16T06:08:20.369Z,3.72
2023-03-16T06:09:20.386Z,3.71
2023-03-16T06:10:20.375Z,3.74
2023-03-16T06:11:20.360Z,3.75
2023-03-16T06:12:20.333Z,3.75
2023-03-16T06:13:20.284Z,3.77
2023-03-16T06:14:20.283Z,3.77
2023-03-16T06:15:20.298Z,3.78
2023-03-16T06:16:20.314Z,3.77
2023-03-16T06:17:20.228Z,3.80
2023-03-16T06:18:20.253Z,3.80
2023-03-16T06:19:20.267Z,3.81
2023-03-16T06:20:20.222Z,3.81
2023-03-16T06:21:20.219Z,3.82
2023-03-16T06:22:20.280Z,3.84
2023-03-16T06:23:20.206Z,3.88
2023-03-16T06:24:20.217Z,3.88
2023-03-16T06:25:20.229Z,3.90
2023-03-16T06:26:20.201Z,3.89
2023-03-16T06:27:21.129Z,3.93
2023-03-16T06:28:20.100Z,3.95
2023-03-16T06:29:20.088Z,3.95
2023-03-16T06:30:20.104Z,3.96
2023-03-16T06:31:20.152Z,3.98
2023-03-16T06:32:20.122Z,3.99
2023-03-16T06:33:20.029Z,4.00
2023-03-16T06:34:20.068Z,4.04
2023-03-16T06:35:20.031Z,4.04
2023-03-16T06:36:20.041Z,4.02
2023-03-16T06:37:20.081Z,4.06
2023-03-16T06:38:19.986Z,4.06
2023-03-16T06:39:19.957Z,4.07
2023-03-16T06:40:19.987Z,4.10
2023-03-16T06:41:19.957Z,4.10
2023-03-16T06:42:19.947Z,4.10
2023-03-16T06:43:19.930Z,4.11
2023-03-16T06:44:19.930Z,4.13
2023-03-16T06:45:19.909Z,4.13
2023-03-16T06:46:20.022Z,4.13
2023-03-16T06:47:19.861Z,4.17
2023-03-16T06:48:19.875Z,4.16
2023-03-16T06:49:19.849Z,4.18
2023-03-16T06:50:19.857Z,4.20
2023-03-16T06:51:19.865Z,4.21
2023-03-16T06:52:19.825Z,4.25
2023-03-16T06:53:19.782Z,4.24
2023-03-16T06:54:19.773Z,4.25
2023-03-16T06:55:19.749Z,4.25
2023-03-16T06:56:19.773Z,4.26
2023-03-16T06:57:19.776Z,4.26
2023-03-16T06:58:19.727Z,4.28
2023-03-16T06:59:19.724Z,4.28
2023-03-16T07:00:19.697Z,4.29
2023-03-16T07:01:19.754Z,4.32
2023-03-16T07:02:19.692Z,4.32
2023-03-16T07:03:19.675Z,4.35
2023-03-16T07:04:20.134Z,4.34
2023-03-16T07:05:19.694Z,4.35
2023-03-16T07:06:20.040Z,4.36
2023-03-16T07:07:19.606Z,4.38
2023-03-16T07:08:19.658Z,4.39
2023-03-16T07:09:19.832Z,4.42
2023-03-16T07:10:19.639Z,4.42
2023-03-16T07:11:20.020Z,4.44
2023-03-16T07:12:20.462Z,4.44
2023-03-16T07:13:19.545Z,4.46
2023-03-16T07:14:19.536Z,4.47
2023-03-16T07:15:19.811Z,4.50
2023-03-16T07:16:20.219Z,4.50
2023-03-16T07:17:19.538Z,4.51
2023-03-16T07:18:19.789Z,4.51
2023-03-16T07:19:19.460Z,4.53
2023-03-16T07:20:21.133Z,4.56
2023-03-16T07:21:19.434Z,4.56
2023-03-16T07:22:19.418Z,4.57
2023-03-16T07:23:19.418Z,4.59
2023-03-16T07:24:19.392Z,4.61
2023-03-16T07:25:19.356Z,4.57
2023-03-16T07:26:19.399Z,4.61
2023-03-16T07:27:20.216Z,4.62
2023-03-16T07:28:19.571Z,4.62
2023-03-16T07:29:19.330Z,4.64
2023-03-16T07:30:19.342Z,4.64
2023-03-16T07:31:19.379Z,4.65
2023-03-16T07:32:19.301Z,4.68
2023-03-16T07:33:19.301Z,4.69
2023-03-16T07:34:19.271Z,4.71
2023-03-16T07:35:19.253Z,4.74
2023-03-16T07:36:19.312Z,4.77
2023-03-16T07:37:25.100Z,4.79
2023-03-16T07:38:20.233Z,4.80
2023-03-16T07:39:19.196Z,4.83
2023-03-16T07:40:19.177Z,4.86
2023-03-16T07:41:19.231Z,4.87
2023-03-16T07:42:19.190Z,4.88
2023-03-16T07:43:19.132Z,4.90
2023-03-16T07:44:19.137Z,4.90
2023-03-16T07:45:19.114Z,4.91
2023-03-16T07:46:19.115Z,4.94
2023-03-16T07:47:19.085Z,4.96
2023-03-16T07:48:19.135Z,4.97
2023-03-16T07:49:19.051Z,5.01
2023-03-16T07:50:19.066Z,5.05
2023-03-16T07:51:19.079Z,5.06
2023-03-16T07:52:19.043Z,5.12
2023-03-16T07:53:19.036Z,5.14
2023-03-16T07:54:19.020Z,5.19
2023-03-16T07:55:18.997Z,5.23
2023-03-16T07:56:18.982Z,5.24
2023-03-16T07:57:18.965Z,5.27
2023-03-16T07:58:18.952Z,5.30
2023-03-16T07:59:20.851Z,5.27
2023-03-16T08:00:18.940Z,5.37
2023-03-16T08:01:18.937Z,5.40
2023-03-16T08:02:18.956Z,5.38
2023-03-16T08:03:18.934Z,5.40
2023-03-16T08:04:18.910Z,5.42
2023-03-16T08:05:18.835Z,5.42
2023-03-16T08:06:18.886Z,5.45
2023-03-16T08:07:18.872Z,5.47
2023-03-16T08:08:18.842Z,5.48
2023-03-16T08:09:18.795Z,5.48
2023-03-16T08:10:18.813Z,5.49
2023-03-16T08:11:18.772Z,5.49
2023-03-16T08:12:18.759Z,5.49
2023-03-16T08:13:18.789Z,5.52
2023-03-16T08:14:18.737Z,5.55
2023-03-16T08:15:18.742Z,5.56
2023-03-16T08:16:21.898Z,5.58
2023-03-16T08:17:18.716Z,5.60
2023-03-16T08:18:18.683Z,5.63
2023-03-16T08:19:18.682Z,5.63
2023-03-16T08:20:18.678Z,5.67
2023-03-16T08:21:18.699Z,5.70
2023-03-16T08:22:18.658Z,5.70
2023-03-16T08:23:18.633Z,5.75
2023-03-16T08:24:18.608Z,5.75
2023-03-16T08:25:18.615Z,5.77
2023-03-16T08:26:18.579Z,5.77
2023-03-16T08:27:18.588Z,5.78
2023-03-16T08:28:18.565Z,5.77
2023-03-16T08:29:18.548Z,5.78
2023-03-16T08:30:18.517Z,5.80
2023-03-16T08:31:18.582Z,5.83
2023-03-16T08:32:18.526Z,5.84
2023-03-16T08:33:18.542Z,5.85
2023-03-16T08:34:18.487Z,5.88
2023-03-16T08:35:18.490Z,5.92
2023-03-16T08:36:18.463Z,5.95
2023-03-16T08:37:18.471Z,5.96
2023-03-16T08:38:18.427Z,5.99
2023-03-16T08:39:18.451Z,6.03
2023-03-16T08:40:18.418Z,6.06
2023-03-16T08:41:18.403Z,6.13
2023-03-16T08:42:18.402Z,6.16
2023-03-16T08:43:18.390Z,6.21
2023-03-16T08:44:18.358Z,6.21
2023-03-16T08:45:18.379Z,6.25
2023-03-16T08:46:18.459Z,6.27
2023-03-16T08:47:18.300Z,6.28
2023-03-16T08:48:18.359Z,6.30
2023-03-16T08:49:18.293Z,6.32
2023-03-16T08:50:18.265Z,6.32
2023-03-16T08:51:18.285Z,6.32
2023-03-16T08:52:18.376Z,6.30
2023-03-16T08:53:18.278Z,6.32
2023-03-16T08:54:18.317Z,6.32
2023-03-16T08:55:18.268Z,6.32
2023-03-16T08:56:18.258Z,6.33
2023-03-16T08:57:18.289Z,6.33
2023-03-16T08:58:18.178Z,6.35
2023-03-16T08:59:29.078Z,6.36
2023-03-16T09:00:19.126Z,6.38
2023-03-16T09:01:18.174Z,6.40
2023-03-16T09:02:18.136Z,6.42
2023-03-16T09:03:18.104Z,6.43
2023-03-16T09:04:18.168Z,6.42
2023-03-16T09:05:18.117Z,6.42
2023-03-16T09:06:18.101Z,6.45
2023-03-16T09:07:18.077Z,6.45
2023-03-16T09:08:18.052Z,6.50
2023-03-16T09:09:18.020Z,6.50
2023-03-16T09:10:18.031Z,6.54
2023-03-16T09:11:18.064Z,6.53
2023-03-16T09:12:17.998Z,6.55
2023-03-16T09:13:17.962Z,6.53
2023-03-16T09:14:17.970Z,6.51
2023-03-16T09:15:17.970Z,6.54
2023-03-16T09:16:17.990Z,6.53
2023-03-16T09:17:17.967Z,6.53
2023-03-16T09:18:17.891Z,6.55
2023-03-16T09:19:17.920Z,6.57
2023-03-16T09:20:33.524Z,6.58
2023-03-16T09:21:18.875Z,6.60
2023-03-16T09:22:17.866Z,6.60
2023-03-16T09:23:17.874Z,6.63
2023-03-16T09:24:17.817Z,6.69
2023-03-16T09:25:17.811Z,6.73
2023-03-16T09:26:17.788Z,6.76
2023-03-16T09:27:17.897Z,6.79
2023-03-16T09:28:19.106Z,6.86
2023-03-16T09:29:17.760Z,6.89
2023-03-16T09:30:17.777Z,6.94
2023-03-16T09:31:17.810Z,6.99
2023-03-16T09:32:17.796Z,7.04
2023-03-16T09:33:17.732Z,7.09
2023-03-16T09:34:17.704Z,7.11
2023-03-16T09:35:17.726Z,7.14
2023-03-16T09:36:17.752Z,7.16
2023-03-16T09:37:17.715Z,7.21
2023-03-16T09:38:17.637Z,7.21
2023-03-16T09:39:17.641Z,7.24
2023-03-16T09:40:17.626Z,7.30
2023-03-16T09:41:17.630Z,7.34
2023-03-16T09:42:17.627Z,7.37
2023-03-16T09:43:17.586Z,7.39
2023-03-16T09:44:17.564Z,7.42
2023-03-16T09:45:17.561Z,7.45
2023-03-16T09:46:17.610Z,7.48
2023-03-16T09:47:17.566Z,7.50
2023-03-16T09:48:17.521Z,7.50
2023-03-16T09:49:17.496Z,7.50
2023-03-16T09:50:17.531Z,7.50
2023-03-16T09:51:17.608Z,7.51
2023-03-16T09:52:17.467Z,7.52
2023-03-16T09:53:17.493Z,7.55
2023-03-16T09:54:17.451Z,7.58
2023-03-16T09:55:17.435Z,7.60
2023-03-16T09:56:17.402Z,7.60
2023-03-16T09:57:17.442Z,7.60
2023-03-16T09:58:17.383Z,7.60
2023-03-16T09:59:17.373Z,7.62
2023-03-16T10:00:17.371Z,7.60
2023-03-16T10:01:17.426Z,7.58
2023-03-16T10:02:17.374Z,7.60
2023-03-16T10:03:17.324Z,7.60
2023-03-16T10:04:17.414Z,7.58
2023-03-16T10:05:17.295Z,7.60
2023-03-16T10:06:17.297Z,7.62
2023-03-16T10:07:17.281Z,7.63
2023-03-16T10:08:17.293Z,7.66
2023-03-16T10:09:17.241Z,7.70
2023-03-16T10:10:17.596Z,7.73
2023-03-16T10:11:17.330Z,7.71
2023-03-16T10:12:17.272Z,7.73
2023-03-16T10:13:17.238Z,7.71
2023-03-16T10:14:17.177Z,7.73
2023-03-16T10:15:17.214Z,7.74
2023-03-16T10:16:17.191Z,7.74
2023-03-16T10:17:17.164Z,7.74
2023-03-16T10:18:17.108Z,7.73
2023-03-16T10:19:17.130Z,7.71
2023-03-16T10:20:17.124Z,7.74
2023-03-16T10:21:17.081Z,7.73
2023-03-16T10:22:17.083Z,7.73
2023-03-16T10:23:17.146Z,7.71
2023-03-16T10:24:17.036Z,7.74
2023-03-16T10:25:17.064Z,7.76
2023-03-16T10:26:17.011Z,7.77
2023-03-16T10:27:17.015Z,7.82
2023-03-16T10:28:16.995Z,7.85
2023-03-16T10:29:16.984Z,7.91
2023-03-16T10:30:16.988Z,7.95
2023-03-16T10:31:17.019Z,7.99
2023-03-16T10:32:16.927Z,8.02
2023-03-16T10:33:17.010Z,8.04
2023-03-16T10:34:16.930Z,8.07
2023-03-16T10:35:16.910Z,8.13
2023-03-16T10:36:16.912Z,8.13
2023-03-16T10:37:16.875Z,8.14
2023-03-16T10:38:16.911Z,8.21
2023-03-16T10:39:16.878Z,8.24
2023-03-16T10:40:16.848Z,8.25
2023-03-16T10:41:16.860Z,8.29
2023-03-16T10:42:16.801Z,8.28
2023-03-16T10:43:16.845Z,8.29
2023-03-16T10:44:16.842Z,8.31
2023-03-16T10:45:16.809Z,8.36
2023-03-16T10:46:16.904Z,8.37
2023-03-16T10:47:16.839Z,8.42
2023-03-16T10:48:16.771Z,8.46
2023-03-16T10:49:16.767Z,8.52
2023-03-16T10:50:16.757Z,8.55
2023-03-16T10:51:16.732Z,8.60
2023-03-16T10:52:16.717Z,8.61
2023-03-16T10:53:16.727Z,8.67
2023-03-16T10:54:16.660Z,8.71
2023-03-16T10:55:16.669Z,8.76
2023-03-16T10:56:16.648Z,8.79
2023-03-16T10:57:16.665Z,8.80
2023-03-16T10:58:16.652Z,8.82
2023-03-16T10:59:16.631Z,8.83
2023-03-16T11:00:16.577Z,8.88
2023-03-16T11:01:16.662Z,8.86
2023-03-16T11:02:16.556Z,8.86
2023-03-16T11:03:16.597Z,8.86
2023-03-16T11:04:16.617Z,8.89
2023-03-16T11:05:16.581Z,8.89
2023-03-16T11:06:16.527Z,8.93
2023-03-16T11:07:16.519Z,8.97
2023-03-16T11:08:16.510Z,8.96
2023-03-16T11:09:16.502Z,8.97
2023-03-16T11:10:16.457Z,8.98
2023-03-16T11:11:16.543Z,8.98
2023-03-16T11:12:16.430Z,9.00
2023-03-16T11:13:16.448Z,9.01
2023-03-16T11:14:16.436Z,9.04
2023-03-16T11:15:25.903Z,9.10
2023-03-16T11:16:17.476Z,9.15
2023-03-16T11:17:16.421Z,9.19
2023-03-16T11:18:16.349Z,9.32
2023-03-16T11:19:16.387Z,9.38
2023-03-16T11:20:16.381Z,9.45
2023-03-16T11:21:16.347Z,9.50
2023-03-16T11:22:16.334Z,9.56
2023-03-16T11:23:16.315Z,9.60
2023-03-16T11:24:16.325Z,9.65
2023-03-16T11:25:16.288Z,9.67
2023-03-16T11:26:16.272Z,9.71
2023-03-16T11:27:16.235Z,9.75
2023-03-16T11:28:16.214Z,9.78
2023-03-16T11:29:16.268Z,9.85
2023-03-16T11:30:16.221Z,9.88
2023-03-16T11:31:16.215Z,9.88
2023-03-16T11:32:16.185Z,9.86
2023-03-16T11:33:16.180Z,9.86
2023-03-16T11:34:16.227Z,9.85
2023-03-16T11:35:16.136Z,9.81
2023-03-16T11:36:16.188Z,9.77
2023-03-16T11:37:16.182Z,9.75
2023-03-16T11:38:16.095Z,9.70
2023-03-16T11:39:16.104Z,9.68
2023-03-16T11:40:16.099Z,9.67
2023-03-16T11:41:16.056Z,9.63
2023-03-16T11:42:16.027Z,9.60
2023-03-16T11:43:16.065Z,9.59
2023-03-16T11:44:16.052Z,9.56
2023-03-16T11:45:16.077Z,9.58
2023-03-16T11:46:16.057Z,9.59
2023-03-16T11:47:16.018Z,9.59
2023-03-16T11:48:15.986Z,9.62
2023-03-16T11:49:16.042Z,9.62
2023-03-16T11:50:15.965Z,9.63
2023-03-16T11:51:15.920Z,9.62
2023-03-16T11:52:15.915Z,9.62
2023-03-16T11:53:15.923Z,9.63
2023-03-16T11:54:15.948Z,9.65
2023-03-16T11:55:15.879Z,9.67
2023-03-16T11:56:15.858Z,9.70
2023-03-16T11:57:15.838Z,9.73
2023-03-16T11:58:15.872Z,9.74
2023-03-16T11:59:15.863Z,9.74
2023-03-16T12:00:15.946Z,9.77
2023-03-16T12:01:15.811Z,9.77
2023-03-16T12:02:15.877Z,9.80
2023-03-16T12:03:15.813Z,9.78
2023-03-16T12:04:15.841Z,9.78
2023-03-16T12:05:15.779Z,9.81
2023-03-16T12:06:22.950Z,9.85
2023-03-16T12:07:16.715Z,9.91
2023-03-16T12:08:15.669Z,9.95
2023-03-16T12:09:15.722Z,9.99
2023-03-16T12:10:15.752Z,10.02
2023-03-16T12:11:15.685Z,10.07
2023-03-16T12:12:15.617Z,10.09
2023-03-16T12:13:15.646Z,10.10
2023-03-16T12:14:15.650Z,10.14
2023-03-16T12:15:15.607Z,10.18
2023-03-16T12:16:15.674Z,10.17
2023-03-16T12:17:15.595Z,10.17
2023-03-16T12:18:15.571Z,10.16
2023-03-16T12:19:15.568Z,10.14
2023-03-16T12:20:15.593Z,10.10
2023-03-16T12:21:15.515Z,10.09
2023-03-16T12:22:15.503Z,10.10
2023-03-16T12:23:15.519Z,10.11
2023-03-16T12:24:15.507Z,10.13
2023-03-16T12:25:15.492Z,10.16
2023-03-16T12:26:15.470Z,10.16
2023-03-16T12:27:15.481Z,10.13
2023-03-16T12:28:15.445Z,10.13
2023-03-16T12:29:15.410Z,10.14
2023-03-16T12:30:15.412Z,10.18
2023-03-16T12:31:15.469Z,10.18
2023-03-16T12:32:15.370Z,10.18
2023-03-16T12:33:15.361Z,10.18
2023-03-16T12:34:15.358Z,10.20
2023-03-16T12:35:15.376Z,10.20
2023-03-16T12:36:15.331Z,10.18
2023-03-16T12:37:15.340Z,10.20
2023-03-16T12:38:15.282Z,10.24
2023-03-16T12:39:15.305Z,10.20
2023-03-16T12:40:15.362Z,10.24
2023-03-16T12:41:17.755Z,10.24
2023-03-16T12:42:15.255Z,10.25
2023-03-16T12:43:15.235Z,10.26
2023-03-16T12:44:15.251Z,10.26
2023-03-16T12:45:15.224Z,10.28
2023-03-16T12:46:15.219Z,10.28
2023-03-16T12:47:15.163Z,10.29
2023-03-16T12:48:15.239Z,10.28
2023-03-16T12:49:15.165Z,10.32
2023-03-16T12:50:15.183Z,10.34
2023-03-16T12:51:15.135Z,10.34
2023-03-16T12:52:15.117Z,10.36
2023-03-16T12:53:15.092Z,10.35
2023-03-16T12:54:15.076Z,10.34
2023-03-16T12:55:15.073Z,10.34
2023-03-16T12:56:15.100Z,10.38
2023-03-16T12:57:15.055Z,10.39
2023-03-16T12:58:15.084Z,10.39
2023-03-16T12:59:15.008Z,10.43
2023-03-16T13:00:15.025Z,10.44
2023-03-16T13:01:15.093Z,10.46
2023-03-16T13:02:15.001Z,10.43
2023-03-16T13:03:14.993Z,10.43
2023-03-16T13:04:15.017Z,10.46
2023-03-16T13:05:14.972Z,10.46
2023-03-16T13:06:14.934Z,10.46
2023-03-16T13:07:14.918Z,10.47
2023-03-16T13:08:14.918Z,10.47
2023-03-16T13:09:14.922Z,10.49
2023-03-16T13:10:14.897Z,10.49
2023-03-16T13:11:14.862Z,10.52
2023-03-16T13:12:14.870Z,10.54
2023-03-16T13:13:14.934Z,10.57
2023-03-16T13:14:14.839Z,10.57
2023-03-16T13:15:14.861Z,10.58
2023-03-16T13:16:14.845Z,10.57